createdAt,value
2022-12-01T00:02:09.228Z,3.02
2022-12-01T00:07:19.097Z,2.99
2022-12-01T00:12:28.635Z,2.98
2022-12-01T00:17:38.024Z,2.95
2022-12-01T00:22:50.377Z,2.91
2022-12-01T00:28:00.184Z,2.93
2022-12-01T00:33:09.893Z,3.00
2022-12-01T00:38:19.657Z,3.05
2022-12-01T00:43:29.191Z,3.06
2022-12-01T00:48:38.804Z,3.08
2022-12-01T00:53:48.375Z,3.14
2022-12-01T00:58:57.772Z,3.16
2022-12-01T01:04:07.463Z,3.12
2022-12-01T01:09:18.126Z,3.08
2022-12-01T01:14:27.894Z,3.01
2022-12-01T01:19:37.478Z,2.96
2022-12-01T01:24:46.879Z,2.97
2022-12-01T01:29:56.361Z,2.94
2022-12-01T01:35:06.152Z,2.86
2022-12-01T01:40:16.968Z,2.86
2022-12-01T01:45:30.797Z,2.82
2022-12-01T01:50:40.538Z,2.85
2022-12-01T01:55:50.197Z,2.91
2022-12-01T02:00:59.936Z,2.83
2022-12-01T02:06:11.104Z,2.80
2022-12-01T02:11:53.600Z,2.82
2022-12-01T02:17:19.521Z,2.94
2022-12-01T02:22:43.215Z,3.01
2022-12-01T02:28:17.261Z,3.12
2022-12-01T02:33:36.948Z,3.12
2022-12-01T02:38:57.761Z,3.07
2022-12-01T02:44:15.616Z,3.01
2022-12-01T02:49:32.100Z,3.01
2022-12-01T02:54:42.885Z,3.00
2022-12-01T02:59:56.671Z,3.01
2022-12-01T03:05:15.558Z,2.96
2022-12-01T03:10:41.205Z,2.89
2022-12-01T03:16:00.245Z,2.81
2022-12-01T03:21:15.400Z,2.83
2022-12-01T03:26:30.871Z,2.91
2022-12-01T03:31:46.279Z,3.04
2022-12-01T03:37:02.820Z,3.07
2022-12-01T03:42:19.244Z,3.09
2022-12-01T03:47:32.682Z,3.07
2022-12-01T03:52:51.106Z,3.07
2022-12-01T03:58:05.919Z,2.98
2022-12-01T04:03:25.172Z,2.83
2022-12-01T04:08:37.156Z,2.79
2022-12-01T04:13:46.722Z,2.88
2022-12-01T04:18:56.256Z,2.98
2022-12-01T04:24:05.962Z,3.02
2022-12-01T04:29:16.512Z,2.96
2022-12-01T04:34:26.118Z,2.89
2022-12-01T04:39:35.988Z,2.77
2022-12-01T04:44:45.592Z,2.70
2022-12-01T04:49:55.331Z,2.70
2022-12-01T04:55:05.306Z,2.84
2022-12-01T05:00:18.441Z,2.89
2022-12-01T05:05:28.467Z,2.85
2022-12-01T05:10:40.766Z,2.80
2022-12-01T05:15:52.333Z,2.70
2022-12-01T05:21:04.232Z,2.64
2022-12-01T05:26:17.749Z,2.67
2022-12-01T05:31:27.252Z,2.75
2022-12-01T05:36:39.340Z,2.84
2022-12-01T05:41:49.023Z,2.90
2022-12-01T05:46:58.531Z,2.86
2022-12-01T05:52:08.309Z,2.80
2022-12-01T05:57:17.705Z,2.79
2022-12-01T06:02:28.109Z,2.85
2022-12-01T06:07:40.531Z,2.98
2022-12-01T06:12:50.463Z,3.05
2022-12-01T06:18:04.298Z,3.09
2022-12-01T06:23:13.955Z,3.08
2022-12-01T06:28:24.030Z,3.08
2022-12-01T06:33:33.863Z,3.03
2022-12-01T06:38:43.623Z,2.98
2022-12-01T06:43:53.106Z,2.94
2022-12-01T06:49:02.575Z,2.91
2022-12-01T06:54:14.709Z,2.89
2022-12-01T06:59:24.930Z,2.87
2022-12-01T07:04:35.531Z,2.86
2022-12-01T07:09:44.979Z,2.94
2022-12-01T07:14:54.593Z,3.09
2022-12-01T07:20:04.323Z,3.25
2022-12-01T07:25:14.530Z,3.33
2022-12-01T07:30:28.374Z,3.26
2022-12-01T07:35:38.257Z,3.19
2022-12-01T07:40:47.771Z,3.17
2022-12-01T07:45:57.588Z,3.28
2022-12-01T07:51:08.212Z,3.32
2022-12-01T07:56:18.402Z,3.28
2022-12-01T08:01:28.696Z,3.26
2022-12-01T08:06:38.254Z,3.27
2022-12-01T08:11:47.809Z,3.26
2022-12-01T08:16:57.779Z,3.22
2022-12-01T08:22:07.416Z,3.24
2022-12-01T08:27:17.022Z,3.22
2022-12-01T08:32:26.672Z,3.28
2022-12-01T08:37:36.149Z,3.39
2022-12-01T08:42:45.672Z,3.51
2022-12-01T08:47:59.118Z,3.52
2022-12-01T08:53:09.016Z,3.51
2022-12-01T08:58:18.681Z,3.46
2022-12-01T09:03:28.271Z,3.41
2022-12-01T09:08:38.976Z,3.39
2022-12-01T09:13:54.467Z,3.36
2022-12-01T09:19:04.749Z,3.40
2022-12-01T09:24:16.298Z,3.41
2022-12-01T09:29:26.080Z,3.38
2022-12-01T09:34:35.467Z,3.47
2022-12-01T09:39:44.777Z,3.57
2022-12-01T09:44:58.478Z,3.63
2022-12-01T09:50:16.310Z,3.66
2022-12-01T09:55:27.770Z,3.72
2022-12-01T10:00:43.925Z,3.89
2022-12-01T10:11:37.568Z,3.97
2022-12-01T10:17:01.449Z,3.91
2022-12-01T10:22:55.955Z,3.80
2022-12-01T10:28:26.842Z,3.81
2022-12-01T10:33:56.449Z,3.78
2022-12-01T10:39:08.157Z,3.78
2022-12-01T10:44:20.891Z,3.86
2022-12-01T10:49:42.320Z,4.02
2022-12-01T10:54:51.906Z,4.16
2022-12-01T11:00:06.142Z,4.21
2022-12-01T11:05:29.425Z,4.25
2022-12-01T11:10:40.530Z,4.23
2022-12-01T11:15:57.559Z,4.13
2022-12-01T11:21:17.660Z,4.04
2022-12-01T11:26:32.486Z,4.10
2022-12-01T11:31:47.308Z,4.21
2022-12-01T11:37:02.032Z,4.26
2022-12-01T11:42:26.710Z,4.29
2022-12-01T11:47:36.229Z,4.24
2022-12-01T11:52:52.131Z,4.21
2022-12-01T11:58:05.743Z,4.08
2022-12-01T12:03:26.591Z,4.09
2022-12-01T12:08:58.289Z,4.11
2022-12-01T12:14:32.996Z,4.10
2022-12-01T12:20:17.331Z,4.09
2022-12-01T12:25:47.419Z,4.05
2022-12-01T12:31:10.738Z,3.96
2022-12-01T12:36:37.503Z,3.93
2022-12-01T12:41:53.765Z,3.98
2022-12-01T12:47:20.613Z,4.03
2022-12-01T12:52:38.154Z,4.07
2022-12-01T12:57:54.480Z,4.08
2022-12-01T13:03:14.781Z,4.06
2022-12-01T13:08:31.015Z,3.97
2022-12-01T13:13:48.458Z,3.85
2022-12-01T13:19:05.267Z,3.82
2022-12-01T13:24:23.354Z,3.80
2022-12-01T13:29:45.286Z,3.70
2022-12-01T13:34:55.055Z,3.69
2022-12-01T13:40:24.033Z,3.76
2022-12-01T13:45:38.845Z,3.86
2022-12-01T13:51:08.632Z,3.86
2022-12-01T13:56:47.352Z,3.74
2022-12-01T14:02:19.980Z,3.65
2022-12-01T14:07:37.198Z,3.63
2022-12-01T14:12:50.359Z,3.65
2022-12-01T14:18:09.707Z,3.75
2022-12-01T14:23:31.415Z,3.84
2022-12-01T14:29:33.923Z,3.91
2022-12-01T14:34:44.137Z,3.91
2022-12-01T14:40:04.713Z,3.88
2022-12-01T14:45:21.967Z,3.76
2022-12-01T14:50:46.203Z,3.70
2022-12-01T14:56:01.026Z,3.67
2022-12-01T15:01:15.325Z,3.56
2022-12-01T15:06:28.607Z,3.56
2022-12-01T15:11:40.445Z,3.60
2022-12-01T15:16:50.193Z,3.72
2022-12-01T15:22:00.391Z,3.70
2022-12-01T15:27:28.168Z,3.65
2022-12-01T15:32:43.359Z,3.55
2022-12-01T15:37:54.224Z,3.47
2022-12-01T15:43:17.251Z,3.40
2022-12-01T15:48:35.652Z,3.43
2022-12-01T15:53:51.492Z,3.49
2022-12-01T15:59:15.659Z,3.46
2022-12-01T16:04:28.333Z,3.37
2022-12-01T16:09:41.581Z,3.24
2022-12-01T16:15:13.449Z,3.10
2022-12-01T16:20:32.838Z,3.11
2022-12-01T16:25:45.456Z,3.11
2022-12-01T16:30:56.310Z,3.11
2022-12-01T16:36:07.051Z,3.02
2022-12-01T16:41:38.285Z,2.93
2022-12-01T16:46:48.398Z,2.84
2022-12-01T16:51:59.342Z,2.79
2022-12-01T16:57:13.434Z,2.87
2022-12-01T17:02:23.316Z,2.82
2022-12-01T17:07:33.406Z,2.72
2022-12-01T17:12:43.239Z,2.69
2022-12-01T17:17:53.204Z,2.58
2022-12-01T17:23:03.288Z,2.60
2022-12-01T17:28:12.795Z,2.72
2022-12-01T17:33:22.257Z,2.82
2022-12-01T17:38:31.778Z,2.79
2022-12-01T17:43:42.859Z,2.73
2022-12-01T17:48:52.427Z,2.69
2022-12-01T17:54:01.958Z,2.67
2022-12-01T17:59:11.890Z,2.65
2022-12-01T18:04:21.626Z,2.74
2022-12-01T18:09:30.974Z,2.87
2022-12-01T18:14:41.006Z,2.89
2022-12-01T18:19:50.788Z,2.88
2022-12-01T18:25:00.133Z,2.81
2022-12-01T18:30:12.606Z,2.75
2022-12-01T18:35:23.098Z,2.70
2022-12-01T18:40:37.289Z,2.66
2022-12-01T18:45:46.849Z,2.63
2022-12-01T18:50:59.675Z,2.68
2022-12-01T18:56:12.322Z,2.74
2022-12-01T19:01:30.511Z,2.57
2022-12-01T19:06:43.885Z,2.41
2022-12-01T19:11:59.941Z,2.33
2022-12-01T19:17:09.688Z,2.28
2022-12-01T19:22:19.354Z,2.29
2022-12-01T19:27:30.544Z,2.30
2022-12-01T19:32:40.417Z,2.29
2022-12-01T19:37:50.546Z,2.21
2022-12-01T19:43:00.141Z,2.10
2022-12-01T19:48:10.759Z,2.05
2022-12-01T19:53:20.219Z,2.01
2022-12-01T19:58:29.712Z,1.91
2022-12-01T20:03:40.755Z,1.97
2022-12-01T20:08:51.249Z,2.01
2022-12-01T20:14:01.051Z,2.07
2022-12-01T20:19:11.626Z,2.08
2022-12-01T20:24:23.021Z,1.99
2022-12-01T20:29:34.018Z,1.95
2022-12-01T20:34:43.594Z,1.97
2022-12-01T20:39:53.374Z,1.86
2022-12-01T20:45:02.852Z,1.76
2022-12-01T20:50:13.621Z,1.79
2022-12-01T20:55:24.627Z,1.81
2022-12-01T21:00:35.010Z,1.72
2022-12-01T21:05:46.367Z,1.64
2022-12-01T21:10:56.127Z,1.61
2022-12-01T21:16:13.682Z,1.58
2022-12-01T21:21:31.093Z,1.66
2022-12-01T21:26:43.046Z,1.75
2022-12-01T21:31:56.461Z,1.80
2022-12-01T21:37:18.519Z,1.78
2022-12-01T21:42:32.611Z,1.73
2022-12-01T21:47:42.593Z,1.75
2022-12-01T21:52:52.957Z,1.67
2022-12-01T21:58:02.623Z,1.72
2022-12-01T22:03:37.678Z,1.75
2022-12-01T22:08:53.172Z,1.73
2022-12-01T22:14:16.838Z,1.75
2022-12-01T22:19:32.933Z,1.73
2022-12-01T22:24:47.611Z,1.75
2022-12-01T22:30:00.754Z,1.73
2022-12-01T22:35:37.927Z,1.63
2022-12-01T22:40:55.855Z,1.58
2022-12-01T22:46:34.455Z,1.54
2022-12-01T22:51:50.247Z,1.53
2022-12-01T22:57:13.025Z,1.55
2022-12-01T23:02:31.100Z,1.50
2022-12-01T23:07:43.883Z,1.43
2022-12-01T23:12:56.397Z,1.26
2022-12-01T23:18:16.224Z,1.24
2022-12-01T23:23:32.348Z,1.27
2022-12-01T23:28:42.728Z,1.29
2022-12-01T23:33:52.148Z,1.29
2022-12-01T23:39:08.572Z,1.26
2022-12-01T23:44:26.299Z,1.17
2022-12-01T23:49:38.113Z,1.09
2022-12-01T23:54:48.338Z,0.87
